createdAt,value
2022-09-03T00:03:18.746Z,2.80
2022-09-03T00:06:48.885Z,2.80
2022-09-03T00:09:51.238Z,1.00
2022-09-03T00:12:48.404Z,2.00
2022-09-03T00:15:45.807Z,3.00
2022-09-03T00:18:46.644Z,2.00
2022-09-03T00:21:57.560Z,2.20
2022-09-03T00:24:54.403Z,2.00
2022-09-03T00:27:55.205Z,2.00
2022-09-03T00:31:15.105Z,3.00
2022-09-03T00:34:12.472Z,1.80
2022-09-03T00:37:14.502Z,2.20
2022-09-03T00:40:57.597Z,1.40
2022-09-03T00:44:01.277Z,2.00
2022-09-03T00:47:09.920Z,3.20
2022-09-03T00:50:25.477Z,3.40
2022-09-03T00:53:54.935Z,3.00
2022-09-03T00:56:59.470Z,2.40
2022-09-03T01:00:00.299Z,3.00
2022-09-03T01:03:12.556Z,3.00
2022-09-03T01:06:39.962Z,4.00
2022-09-03T01:10:02.402Z,3.40
2022-09-03T01:13:03.367Z,3.00
2022-09-03T01:16:20.588Z,3.00
2022-09-03T01:19:44.163Z,3.00
2022-09-03T01:23:12.204Z,3.00
2022-09-03T01:26:32.215Z,3.60
2022-09-03T01:29:39.644Z,2.60
2022-09-03T01:32:58.897Z,3.00
2022-09-03T01:36:04.380Z,3.00
2022-09-03T01:39:03.910Z,3.40
2022-09-03T01:42:20.479Z,2.40
2022-09-03T01:45:51.191Z,3.00
2022-09-03T01:48:54.506Z,3.00
2022-09-03T01:52:03.965Z,3.00
2022-09-03T01:55:21.473Z,3.00
2022-09-03T01:58:31.595Z,4.00
2022-09-03T02:01:32.154Z,3.40
2022-09-03T02:04:29.919Z,5.00
2022-09-03T02:07:38.954Z,3.00
2022-09-03T02:10:41.941Z,4.00
2022-09-03T02:13:43.901Z,4.00
2022-09-03T02:16:40.503Z,4.00
2022-09-03T02:19:37.795Z,3.40
2022-09-03T02:22:34.767Z,3.00
2022-09-03T02:25:41.114Z,4.00
2022-09-03T02:28:38.419Z,4.00
2022-09-03T02:31:35.912Z,3.00
2022-09-03T02:34:32.928Z,3.80
2022-09-03T02:37:29.633Z,5.00
2022-09-03T02:40:26.994Z,2.20
2022-09-03T02:43:32.901Z,3.60
2022-09-03T02:46:49.923Z,3.40
2022-09-03T02:49:48.745Z,3.80
2022-09-03T02:52:46.940Z,4.20
2022-09-03T02:55:43.940Z,5.00
2022-09-03T02:58:41.527Z,3.00
2022-09-03T03:01:39.122Z,4.40
2022-09-03T03:04:39.506Z,4.00
2022-09-03T03:07:38.054Z,4.00
2022-09-03T03:10:36.307Z,4.00
2022-09-03T03:13:34.282Z,5.00
2022-09-03T03:16:31.687Z,5.00
2022-09-03T03:19:29.012Z,3.20
2022-09-03T03:22:27.980Z,5.00
2022-09-03T03:25:26.012Z,5.00
2022-09-03T03:28:23.177Z,4.00
2022-09-03T03:31:22.269Z,5.00
2022-09-03T03:34:19.696Z,4.60
2022-09-03T03:37:16.669Z,6.00
2022-09-03T03:40:13.576Z,6.00
2022-09-03T03:43:10.881Z,6.00
2022-09-03T03:46:08.038Z,5.00
2022-09-03T03:49:06.720Z,6.00
2022-09-03T03:52:04.521Z,4.80
2022-09-03T03:55:01.628Z,5.80
2022-09-03T03:57:58.981Z,6.00
2022-09-03T04:00:55.778Z,5.00
2022-09-03T04:03:55.168Z,4.00
2022-09-03T04:06:53.975Z,5.00
2022-09-03T04:09:52.109Z,5.00
2022-09-03T04:12:49.045Z,4.80
2022-09-03T04:15:46.116Z,6.40
2022-09-03T04:18:42.456Z,5.80
2022-09-03T04:21:40.108Z,6.00
2022-09-03T04:24:36.811Z,6.00
2022-09-03T04:27:33.951Z,5.20
2022-09-03T04:30:30.720Z,6.00
2022-09-03T04:33:27.832Z,5.80
2022-09-03T04:36:26.260Z,5.40
2022-09-03T04:39:23.880Z,4.80
2022-09-03T04:42:20.847Z,6.20
2022-09-03T04:45:18.965Z,6.20
2022-09-03T04:48:16.172Z,4.80
2022-09-03T04:51:14.957Z,6.00
2022-09-03T04:54:12.199Z,5.00
2022-09-03T04:57:10.506Z,4.00
2022-09-03T05:00:10.728Z,5.60
2022-09-03T05:03:08.085Z,6.00
2022-09-03T05:06:06.417Z,5.00
2022-09-03T05:09:05.298Z,6.00
2022-09-03T05:12:02.995Z,4.20
2022-09-03T05:15:04.217Z,5.00
2022-09-03T05:18:02.544Z,6.00
2022-09-03T05:21:03.128Z,5.60
2022-09-03T05:24:00.166Z,4.20
2022-09-03T05:26:56.798Z,6.00
2022-09-03T05:29:53.741Z,5.40
2022-09-03T05:32:51.393Z,5.60
2022-09-03T05:35:48.832Z,4.20
2022-09-03T05:38:46.040Z,4.00
2022-09-03T05:41:42.987Z,5.00
2022-09-03T05:44:39.863Z,5.00
2022-09-03T05:47:39.531Z,5.00
2022-09-03T05:50:37.192Z,4.20
2022-09-03T05:53:35.357Z,3.00
2022-09-03T05:56:33.584Z,3.40
2022-09-03T05:59:30.993Z,4.40
2022-09-03T06:02:28.073Z,4.00
2022-09-03T06:05:25.372Z,6.00
2022-09-03T06:08:22.764Z,5.00
2022-09-03T06:11:20.756Z,7.40
2022-09-03T06:14:18.103Z,5.00
2022-09-03T06:17:15.171Z,5.00
2022-09-03T06:20:11.969Z,5.00
2022-09-03T06:23:09.091Z,4.20
2022-09-03T06:26:07.039Z,4.80
2022-09-03T06:29:04.332Z,4.00
2022-09-03T06:32:04.694Z,5.80
2022-09-03T06:35:02.134Z,5.00
2022-09-03T06:38:00.498Z,5.00
2022-09-03T06:41:02.045Z,4.80
2022-09-03T06:44:03.421Z,6.00
2022-09-03T06:47:01.583Z,4.60
2022-09-03T06:50:00.221Z,4.00
2022-09-03T06:52:56.949Z,4.20
2022-09-03T06:55:55.317Z,4.00
2022-09-03T06:58:59.827Z,4.00
2022-09-03T07:01:58.657Z,4.00
2022-09-03T07:04:56.303Z,4.00
2022-09-03T07:07:52.793Z,5.00
2022-09-03T07:10:51.267Z,3.60
2022-09-03T07:13:49.120Z,3.00
2022-09-03T07:16:46.470Z,3.60
2022-09-03T07:19:43.995Z,4.00
2022-09-03T07:22:41.340Z,3.00
2022-09-03T07:25:39.094Z,3.80
2022-09-03T07:28:37.433Z,4.00
2022-09-03T07:31:37.478Z,3.40
2022-09-03T07:34:35.703Z,4.20
2022-09-03T07:37:35.508Z,4.00
2022-09-03T07:40:33.329Z,4.00
2022-09-03T07:43:32.088Z,3.60
2022-09-03T07:46:29.525Z,3.00
2022-09-03T07:49:27.032Z,3.00
2022-09-03T07:52:24.066Z,3.80
2022-09-03T07:55:20.986Z,4.80
2022-09-03T07:58:18.187Z,3.00
2022-09-03T08:01:18.067Z,3.60
2022-09-03T08:04:15.195Z,3.80
2022-09-03T08:07:12.269Z,4.00
2022-09-03T08:10:09.537Z,2.80
2022-09-03T08:13:07.231Z,3.00
2022-09-03T08:16:05.480Z,3.60
2022-09-03T08:19:03.808Z,3.00
2022-09-03T08:22:00.938Z,3.00
2022-09-03T08:24:58.249Z,3.00
2022-09-03T08:27:57.800Z,3.00
2022-09-03T08:30:55.529Z,3.00
2022-09-03T08:33:54.103Z,4.00
2022-09-03T08:36:53.332Z,4.00
2022-09-03T08:39:51.146Z,3.00
2022-09-03T08:43:09.718Z,2.20
2022-09-03T08:46:07.069Z,2.00
2022-09-03T08:49:04.390Z,3.00
2022-09-03T08:52:05.872Z,3.00
2022-09-03T08:55:07.571Z,3.20
2022-09-03T08:58:18.755Z,3.00
2022-09-03T09:01:59.227Z,3.00
2022-09-03T09:05:19.503Z,3.20
2022-09-03T09:08:27.093Z,3.00
2022-09-03T09:11:33.718Z,3.00
2022-09-03T09:14:56.277Z,3.60
2022-09-03T09:18:03.099Z,1.00
2022-09-03T09:21:07.892Z,3.60
2022-09-03T09:24:08.784Z,3.20
2022-09-03T09:27:06.106Z,3.00
2022-09-03T09:30:04.862Z,4.00
2022-09-03T09:33:03.152Z,3.00
2022-09-03T09:36:02.959Z,2.00
2022-09-03T09:39:09.697Z,3.00
2022-09-03T09:42:11.370Z,2.40
2022-09-03T09:45:11.559Z,2.40
2022-09-03T09:48:17.713Z,4.00
2022-09-03T09:51:31.137Z,1.50
2022-09-03T09:54:27.920Z,2.75
2022-09-03T09:57:25.383Z,2.00
2022-09-03T10:00:21.944Z,1.75
2022-09-03T10:03:21.287Z,2.00
2022-09-03T10:06:36.854Z,3.00
2022-09-03T10:09:34.352Z,2.00
2022-09-03T10:12:42.193Z,2.50
2022-09-03T10:15:48.200Z,3.00
2022-09-03T10:18:51.478Z,3.00
2022-09-03T10:22:06.147Z,3.00
2022-09-03T10:25:03.647Z,3.00
2022-09-03T10:28:02.138Z,3.00
2022-09-03T10:31:37.126Z,3.50
2022-09-03T10:35:04.136Z,2.50
2022-09-03T10:38:36.652Z,3.50
2022-09-03T10:42:02.660Z,3.00
2022-09-03T10:45:09.719Z,1.75
2022-09-03T10:48:29.058Z,0.00
2022-09-03T10:51:41.040Z,2.25
2022-09-03T10:54:57.292Z,2.75
2022-09-03T10:58:03.311Z,4.00
2022-09-03T11:01:07.212Z,2.00
2022-09-03T11:04:20.045Z,3.00
2022-09-03T11:07:20.779Z,2.75
2022-09-03T11:10:41.091Z,2.25
2022-09-03T11:13:45.098Z,3.00
2022-09-03T11:17:15.791Z,4.00
2022-09-03T11:20:23.820Z,3.00
2022-09-03T11:23:21.870Z,4.00
2022-09-03T11:26:19.890Z,3.75
2022-09-03T11:29:30.456Z,3.75
2022-09-03T11:32:39.922Z,3.25
2022-09-03T11:35:36.914Z,4.00
2022-09-03T11:38:34.550Z,1.00
2022-09-03T11:41:35.845Z,2.00
2022-09-03T11:44:45.900Z,2.00
2022-09-03T11:47:48.742Z,3.00
2022-09-03T11:50:54.405Z,3.25
2022-09-03T11:54:15.727Z,3.00
2022-09-03T11:57:25.098Z,3.00
2022-09-03T12:00:25.017Z,2.25
2022-09-03T12:03:31.217Z,3.00
2022-09-03T12:06:59.736Z,3.25
2022-09-03T12:10:21.717Z,3.00
2022-09-03T12:13:41.921Z,3.75
2022-09-03T12:17:04.175Z,4.00
2022-09-03T12:20:01.702Z,3.00
2022-09-03T12:22:59.393Z,2.75
2022-09-03T12:26:05.323Z,3.50
2022-09-03T12:29:02.724Z,4.50
2022-09-03T12:32:11.730Z,4.00
2022-09-03T12:39:01.033Z,3.50
2022-09-03T12:42:07.753Z,3.50
2022-09-03T12:45:07.146Z,3.75
2022-09-03T12:48:05.411Z,3.25
2022-09-03T12:51:47.827Z,2.75
2022-09-03T12:54:20.463Z,2.50
2022-09-03T12:57:19.887Z,3.25
2022-09-03T13:00:18.825Z,3.75
2022-09-03T13:03:24.707Z,2.00
2022-09-03T13:06:26.559Z,4.75
2022-09-03T13:09:24.519Z,4.75
2022-09-03T13:12:33.532Z,3.75
2022-09-03T13:15:31.594Z,3.50
2022-09-03T13:18:57.029Z,2.75
2022-09-03T13:22:15.760Z,3.00
2022-09-03T13:25:21.245Z,2.50
2022-09-03T13:28:54.691Z,3.00
2022-09-03T13:31:55.670Z,3.50
2022-09-03T13:34:55.860Z,2.75
2022-09-03T13:37:58.198Z,3.25
2022-09-03T13:41:21.137Z,3.00
2022-09-03T13:44:20.121Z,3.75
2022-09-03T13:47:29.869Z,4.00
2022-09-03T13:50:28.472Z,2.50
2022-09-03T13:53:51.865Z,3.25
2022-09-03T13:57:08.032Z,2.25
2022-09-03T14:00:09.006Z,2.75
2022-09-03T14:03:16.664Z,3.50
2022-09-03T14:06:32.382Z,3.75
2022-09-03T14:09:51.970Z,3.75
2022-09-03T14:13:12.059Z,4.00
2022-09-03T14:16:30.865Z,3.50
2022-09-03T14:19:49.093Z,4.00
2022-09-03T14:22:57.621Z,4.00
2022-09-03T14:25:58.025Z,3.00
2022-09-03T14:29:03.231Z,3.75
2022-09-03T14:32:29.440Z,3.25
2022-09-03T14:35:50.656Z,3.50
2022-09-03T14:39:18.233Z,4.00
2022-09-03T14:42:37.044Z,4.25
2022-09-03T14:45:55.825Z,4.75
2022-09-03T14:49:12.043Z,4.00
2022-09-03T14:52:31.524Z,1.75
2022-09-03T14:55:35.519Z,3.50
2022-09-03T14:58:35.329Z,3.00
2022-09-03T15:01:39.503Z,3.00
2022-09-03T15:05:02.570Z,2.75
2022-09-03T15:08:18.828Z,2.75
2022-09-03T15:11:22.820Z,4.00
2022-09-03T15:14:41.609Z,2.75
2022-09-03T15:18:07.653Z,1.75
2022-09-03T15:21:24.510Z,3.75
2022-09-03T15:24:27.636Z,4.50
2022-09-03T15:27:42.074Z,3.00
2022-09-03T15:30:45.194Z,3.75
2022-09-03T15:34:13.167Z,3.75
2022-09-03T15:37:57.827Z,2.50
2022-09-03T15:40:57.125Z,4.75
2022-09-03T15:43:58.952Z,3.75
2022-09-03T15:47:00.516Z,2.75
2022-09-03T15:50:10.415Z,2.00
2022-09-03T15:53:22.519Z,2.00
2022-09-03T15:56:39.880Z,3.25
2022-09-03T15:59:42.684Z,3.25
2022-09-03T16:03:20.416Z,4.00
2022-09-03T16:06:20.937Z,3.75
2022-09-03T16:09:27.894Z,3.75
2022-09-03T16:13:04.653Z,1.75
2022-09-03T16:16:05.996Z,4.25
2022-09-03T16:19:12.113Z,4.25
2022-09-03T16:22:42.442Z,3.00
2022-09-03T16:26:11.131Z,2.25
2022-09-03T16:29:15.781Z,2.50
2022-09-03T16:32:32.502Z,2.75
2022-09-03T16:35:33.050Z,2.75
2022-09-03T16:38:49.824Z,2.75
2022-09-03T16:41:53.116Z,3.50
2022-09-03T16:44:59.925Z,3.25
2022-09-03T16:48:12.215Z,4.50
2022-09-03T16:51:45.311Z,3.75
2022-09-03T16:55:08.626Z,4.00
2022-09-03T16:58:22.290Z,3.00
2022-09-03T17:01:39.713Z,4.00
2022-09-03T17:04:46.368Z,4.00
2022-09-03T17:08:16.377Z,3.50
2022-09-03T17:11:26.951Z,3.00
2022-09-03T17:14:27.636Z,4.00
2022-09-03T17:17:43.570Z,4.00
2022-09-03T17:21:28.886Z,4.00
2022-09-03T17:24:50.833Z,4.50
2022-09-03T17:27:52.090Z,4.75
2022-09-03T17:31:16.137Z,4.00
2022-09-03T17:34:29.660Z,3.75
2022-09-03T17:37:50.283Z,3.50
2022-09-03T17:41:04.146Z,2.00
2022-09-03T17:44:23.086Z,2.50
2022-09-03T17:47:57.267Z,3.00
2022-09-03T17:51:01.754Z,3.75
2022-09-03T17:54:09.314Z,2.25
2022-09-03T17:57:24.690Z,4.00
2022-09-03T18:00:45.904Z,3.50
2022-09-03T18:04:05.115Z,3.25
2022-09-03T18:07:10.725Z,3.25
2022-09-03T18:10:40.108Z,4.00
2022-09-03T18:13:46.176Z,4.00
2022-09-03T18:16:56.424Z,4.00
2022-09-03T18:20:25.444Z,4.00
2022-09-03T18:23:49.081Z,4.75
2022-09-03T18:27:08.051Z,3.00
2022-09-03T18:30:29.208Z,3.00
2022-09-03T18:33:44.990Z,3.80
2022-09-03T18:37:01.307Z,3.20
2022-09-03T18:40:17.131Z,4.00
2022-09-03T18:43:43.028Z,3.40
2022-09-03T18:50:56.737Z,3.60
2022-09-03T18:55:03.950Z,2.60
2022-09-03T18:58:37.929Z,2.00
2022-09-03T19:01:58.479Z,2.00
2022-09-03T19:05:42.640Z,3.00
2022-09-03T19:09:05.747Z,3.00
2022-09-03T19:12:42.834Z,4.00
2022-09-03T19:16:18.379Z,2.80
2022-09-03T19:19:46.486Z,4.00
2022-09-03T19:23:02.742Z,1.00
2022-09-03T19:26:26.950Z,3.20
2022-09-03T19:30:08.847Z,3.60
2022-09-03T19:33:42.903Z,3.00
2022-09-03T19:37:23.236Z,4.00
2022-09-03T19:41:03.888Z,3.80
2022-09-03T19:44:19.405Z,3.00
2022-09-03T19:47:59.545Z,3.00
2022-09-03T19:51:35.512Z,3.00
2022-09-03T19:54:51.485Z,4.00
2022-09-03T19:58:26.165Z,3.60
2022-09-03T20:01:55.291Z,3.00
2022-09-03T20:05:19.018Z,3.00
2022-09-03T20:08:35.319Z,3.00
2022-09-03T20:11:32.625Z,4.00
2022-09-03T20:14:29.853Z,3.20
2022-09-03T20:17:43.119Z,4.00
2022-09-03T20:21:21.349Z,3.20
2022-09-03T20:24:40.002Z,3.00
2022-09-03T20:27:48.813Z,3.00
2022-09-03T20:30:51.888Z,4.60
2022-09-03T20:34:06.856Z,4.60
2022-09-03T20:37:24.941Z,4.00
2022-09-03T20:40:54.613Z,5.00
2022-09-03T20:44:01.568Z,4.00
2022-09-03T20:47:26.650Z,4.00
2022-09-03T20:50:41.198Z,5.20
2022-09-03T20:54:03.688Z,4.00
2022-09-03T20:57:14.569Z,3.40
2022-09-03T21:00:14.146Z,4.00
2022-09-03T21:03:49.965Z,4.20
2022-09-03T21:06:58.755Z,3.40
2022-09-03T21:10:04.046Z,5.00
2022-09-03T21:13:16.488Z,4.00
2022-09-03T21:17:00.305Z,4.00
2022-09-03T21:20:08.304Z,5.00
2022-09-03T21:23:24.550Z,4.00
2022-09-03T21:26:29.871Z,5.00
2022-09-03T21:29:29.463Z,3.40
2022-09-03T21:32:54.244Z,4.60
2022-09-03T21:35:54.757Z,5.00
2022-09-03T21:39:06.244Z,4.80
2022-09-03T21:42:21.327Z,4.60
2022-09-03T21:45:37.004Z,1.60
2022-09-03T21:48:46.812Z,4.00
2022-09-03T21:51:58.753Z,5.00
2022-09-03T21:54:55.799Z,4.00
2022-09-03T21:58:16.894Z,5.00
2022-09-03T22:01:26.373Z,5.80
2022-09-03T22:04:28.141Z,3.00
2022-09-03T22:07:53.412Z,5.20
2022-09-03T22:10:54.051Z,4.80
2022-09-03T22:13:59.142Z,4.40
2022-09-03T22:17:16.825Z,5.20
2022-09-03T22:20:15.555Z,4.00
2022-09-03T22:23:15.636Z,5.00
2022-09-03T22:26:27.960Z,5.40
2022-09-03T22:29:49.218Z,5.60
2022-09-03T22:33:10.305Z,5.60
2022-09-03T22:36:28.548Z,6.00
2022-09-03T22:39:37.555Z,3.40
2022-09-03T22:42:56.689Z,5.80
2022-09-03T22:46:12.944Z,4.80
2022-09-03T22:49:11.232Z,5.00
2022-09-03T22:52:22.568Z,5.80
2022-09-03T22:55:23.172Z,4.40
2022-09-03T22:58:28.951Z,6.00
2022-09-03T23:01:31.491Z,5.00
2022-09-03T23:04:42.340Z,5.60
2022-09-03T23:07:46.282Z,5.20
2022-09-03T23:11:10.382Z,5.40
2022-09-03T23:14:09.758Z,4.20
2022-09-03T23:17:10.140Z,6.00
2022-09-03T23:23:13.347Z,6.80
2022-09-03T23:26:42.907Z,7.00
2022-09-03T23:29:42.863Z,5.60
2022-09-03T23:32:39.849Z,6.00
2022-09-03T23:35:56.636Z,6.20
2022-09-03T23:39:18.472Z,6.00
2022-09-03T23:42:43.053Z,6.00
2022-09-03T23:45:49.383Z,7.00
2022-09-03T23:48:46.676Z,7.20
2022-09-03T23:52:00.664Z,6.00
2022-09-03T23:55:19.505Z,5.60
2022-09-03T23:58:20.607Z,6.60
